Time;durP1;ratioP1;P1;durP2;ratioP2;P2;SDS_P1;SDS_P2;PMS_P1;PMS_P2;Temp;Humidity;BMP_temperature;BMP_pressure;BME280_temperature;BME280_humidity;BME280_pressure;Samples;Min_cycle;Max_cycle;Signal;HPM_P1;HPM_P2
2023/05/17 00:02:47;;;;;;;5.43;4.15;;;;;;;;;;6197369;28;20058;-78
2023/05/17 00:05:50;;;;;;;6.57;4.93;;;;;;;;;;6197279;28;20054;-78
2023/05/17 00:08:52;;;;;;;8.07;4.50;;;;;;;;;;6194682;28;20058;-78
2023/05/17 00:11:54;;;;;;;5.90;4.93;;;;;;;;;;6195041;28;20046;-78
2023/05/17 00:14:56;;;;;;;6.78;4.25;;;;;;;;;;6193802;28;20105;-78
2023/05/17 00:17:58;;;;;;;6.72;4.20;;;;;;;;;;6196851;28;20235;-79
2023/05/17 00:21:01;;;;;;;8.80;4.75;;;;;;;;;;6193163;28;20093;-78
2023/05/17 00:24:03;;;;;;;8.73;5.00;;;;;;;;;;6195197;28;20101;-78
2023/05/17 00:27:06;;;;;;;5.93;4.72;;;;;;;;;;6194042;28;20519;-77
2023/05/17 00:30:08;;;;;;;6.53;4.63;;;;;;;;;;6196762;28;20073;-77
2023/05/17 00:33:10;;;;;;;8.00;5.25;;;;;;;;;;6191029;28;20104;-77
2023/05/17 00:36:16;;;;;;;7.60;5.70;;;;;;;;;;6192660;28;20340;-79
2023/05/17 00:39:19;;;;;;;8.43;5.05;;;;;;;;;;6196580;28;20058;-77
2023/05/17 00:42:21;;;;;;;8.35;5.55;;;;;;;;;;6196678;28;20054;-79
2023/05/17 00:45:23;;;;;;;6.05;5.07;;;;;;;;;;6195321;28;20396;-78
2023/05/17 00:48:28;;;;;;;7.15;5.28;;;;;;;;;;6188879;28;20096;-79
2023/05/17 00:51:33;;;;;;;6.88;4.90;;;;;;;;;;6196244;28;20053;-80
2023/05/17 00:54:35;;;;;;;7.22;5.15;;;;;;;;;;6195947;28;20161;-78
2023/05/17 00:57:37;;;;;;;9.18;5.25;;;;;;;;;;6194535;28;20097;-78
2023/05/17 01:00:39;;;;;;;6.15;5.07;;;;;;;;;;6192270;28;20078;-77
2023/05/17 01:03:41;;;;;;;7.47;5.13;;;;;;;;;;6192056;28;20267;-77
2023/05/17 01:06:45;;;;;;;8.07;5.22;;;;;;;;;;6198403;28;20257;-77
2023/05/17 01:09:47;;;;;;;7.47;5.43;;;;;;;;;;6193561;28;20046;-77
2023/05/17 01:12:56;;;;;;;7.35;5.15;;;;;;;;;;6195811;28;20066;-76
2023/05/17 01:16:03;;;;;;;7.10;5.18;;;;;;;;;;6193630;28;20242;-78
2023/05/17 01:19:17;;;;;;;8.38;5.63;;;;;;;;;;6193818;28;20065;-77
2023/05/17 01:22:28;;;;;;;7.75;5.20;;;;;;;;;;6193239;28;20054;-77
2023/05/17 01:25:40;;;;;;;7.88;4.95;;;;;;;;;;6195425;28;20093;-77
2023/05/17 01:28:45;;;;;;;6.85;5.60;;;;;;;;;;6193611;28;20102;-76
2023/05/17 01:31:48;;;;;;;8.27;5.35;;;;;;;;;;6191897;28;20051;-79
2023/05/17 01:34:50;;;;;;;8.93;6.07;;;;;;;;;;6199733;28;20042;-77
2023/05/17 01:37:53;;;;;;;10.90;5.45;;;;;;;;;;6198210;28;20470;-77
2023/05/17 01:40:58;;;;;;;9.85;5.43;;;;;;;;;;6192447;28;20307;-78
2023/05/17 01:44:07;;;;;;;9.00;5.63;;;;;;;;;;6200642;28;20054;-77
2023/05/17 01:47:14;;;;;;;9.20;5.70;;;;;;;;;;6199233;28;20077;-77
2023/05/17 01:50:23;;;;;;;7.47;5.43;;;;;;;;;;6199856;28;20097;-79
2023/05/17 01:53:33;;;;;;;8.73;5.50;;;;;;;;;;6198149;28;20058;-78
2023/05/17 01:56:41;;;;;;;5.78;4.90;;;;;;;;;;6201679;28;20047;-77
2023/05/17 01:59:46;;;;;;;7.68;5.45;;;;;;;;;;6197103;28;20050;-77
2023/05/17 02:02:54;;;;;;;7.97;5.55;;;;;;;;;;6199730;28;20050;-77
2023/05/17 02:05:56;;;;;;;7.75;5.53;;;;;;;;;;6198123;28;20417;-77
2023/05/17 02:09:01;;;;;;;8.20;5.72;;;;;;;;;;6201292;28;20065;-77
2023/05/17 02:12:03;;;;;;;11.32;5.95;;;;;;;;;;6198366;28;20061;-77
2023/05/17 02:15:10;;;;;;;8.85;5.72;;;;;;;;;;6197978;28;20065;-77
2023/05/17 02:18:11;;;;;;;11.27;6.65;;;;;;;;;;6198588;28;20220;-77
2023/05/17 02:21:13;;;;;;;9.32;6.70;;;;;;;;;;6200775;28;20991;-77
2023/05/17 02:24:15;;;;;;;8.60;6.10;;;;;;;;;;6198649;28;20387;-77
2023/05/17 02:27:16;;;;;;;9.73;5.70;;;;;;;;;;6197882;28;20062;-77
2023/05/17 02:30:21;;;;;;;8.88;5.72;;;;;;;;;;6199651;28;20338;-77
2023/05/17 02:33:22;;;;;;;8.48;6.35;;;;;;;;;;6198847;28;20073;-77
2023/05/17 02:36:24;;;;;;;11.95;6.90;;;;;;;;;;6198205;28;20047;-77
2023/05/17 02:39:26;;;;;;;7.95;6.18;;;;;;;;;;6197949;28;21233;-79
2023/05/17 02:42:27;;;;;;;8.88;6.10;;;;;;;;;;6199647;28;20050;-77
2023/05/17 02:45:30;;;;;;;10.60;6.00;;;;;;;;;;6198108;28;20298;-77
2023/05/17 02:48:32;;;;;;;8.73;5.93;;;;;;;;;;6196482;28;20061;-79
2023/05/17 02:51:34;;;;;;;10.68;5.93;;;;;;;;;;6194041;28;20142;-79
2023/05/17 02:54:36;;;;;;;9.77;6.63;;;;;;;;;;6196341;28;20141;-77
2023/05/17 02:57:37;;;;;;;8.73;6.75;;;;;;;;;;6198839;28;20061;-77
2023/05/17 03:00:44;;;;;;;8.85;6.93;;;;;;;;;;6199011;28;20298;-79
2023/05/17 03:03:46;;;;;;;8.93;6.72;;;;;;;;;;6196255;28;20349;-77
2023/05/17 03:06:49;;;;;;;10.32;6.53;;;;;;;;;;6197697;28;20054;-79
2023/05/17 03:09:51;;;;;;;7.80;6.65;;;;;;;;;;6194305;28;20069;-79
2023/05/17 03:12:52;;;;;;;8.20;6.65;;;;;;;;;;6196001;28;20291;-79
2023/05/17 03:15:55;;;;;;;7.95;6.72;;;;;;;;;;6195045;28;20090;-79
2023/05/17 03:18:57;;;;;;;7.37;6.10;;;;;;;;;;6197460;28;20047;-79
2023/05/17 03:21:59;;;;;;;9.52;6.80;;;;;;;;;;6196344;28;20058;-79
2023/05/17 03:25:00;;;;;;;9.98;6.68;;;;;;;;;;6197550;28;20051;-80
2023/05/17 03:28:02;;;;;;;9.43;6.65;;;;;;;;;;6195623;28;20865;-77
2023/05/17 03:31:05;;;;;;;8.90;6.88;;;;;;;;;;6197579;28;20258;-79
2023/05/17 03:34:07;;;;;;;9.97;6.80;;;;;;;;;;6197461;28;20267;-77
2023/05/17 03:37:08;;;;;;;11.93;7.10;;;;;;;;;;6199804;28;20528;-77
2023/05/17 03:40:11;;;;;;;8.93;7.13;;;;;;;;;;6195131;28;20054;-77
2023/05/17 03:43:12;;;;;;;9.95;6.47;;;;;;;;;;6197045;28;20064;-79
2023/05/17 03:46:15;;;;;;;9.50;7.30;;;;;;;;;;6196565;28;20052;-77
2023/05/17 03:49:17;;;;;;;11.05;7.43;;;;;;;;;;6196605;28;20066;-78
2023/05/17 03:52:19;;;;;;;10.07;7.38;;;;;;;;;;6196986;28;20061;-77
2023/05/17 03:55:20;;;;;;;9.38;6.97;;;;;;;;;;6196068;28;20230;-77
2023/05/17 03:58:22;;;;;;;11.20;7.80;;;;;;;;;;6195617;28;20043;-77
2023/05/17 04:01:25;;;;;;;7.75;6.70;;;;;;;;;;6191743;28;20065;-79
2023/05/17 04:04:27;;;;;;;11.43;7.83;;;;;;;;;;6194852;28;20051;-79
2023/05/17 04:07:28;;;;;;;9.13;7.32;;;;;;;;;;6195440;28;20290;-77
2023/05/17 04:10:30;;;;;;;9.13;7.30;;;;;;;;;;6192863;28;20057;-79
2023/05/17 04:13:32;;;;;;;8.73;7.13;;;;;;;;;;6197932;28;20050;-77
2023/05/17 04:16:35;;;;;;;11.95;7.55;;;;;;;;;;6195119;28;20089;-77
2023/05/17 04:19:37;;;;;;;9.55;8.00;;;;;;;;;;6192795;28;20063;-80
2023/05/17 04:22:38;;;;;;;9.75;7.75;;;;;;;;;;6192915;28;20096;-76
2023/05/17 04:25:41;;;;;;;11.88;7.85;;;;;;;;;;6196703;28;20058;-77
2023/05/17 04:28:42;;;;;;;10.00;7.63;;;;;;;;;;6194478;28;20082;-78
2023/05/17 04:31:46;;;;;;;10.52;8.05;;;;;;;;;;6196453;28;20059;-76
2023/05/17 04:34:48;;;;;;;9.43;7.07;;;;;;;;;;6193094;28;20305;-77
2023/05/17 04:37:49;;;;;;;13.93;8.13;;;;;;;;;;6195769;28;20054;-76
2023/05/17 04:40:51;;;;;;;13.10;7.72;;;;;;;;;;6192591;28;20054;-78
2023/05/17 04:43:52;;;;;;;11.45;8.10;;;;;;;;;;6194403;28;20335;-79
2023/05/17 04:46:55;;;;;;;9.55;7.68;;;;;;;;;;6194793;28;20054;-78
2023/05/17 04:49:57;;;;;;;10.15;8.52;;;;;;;;;;6194263;28;20042;-78
2023/05/17 04:52:59;;;;;;;11.13;8.57;;;;;;;;;;6198033;28;20059;-79
2023/05/17 04:56:02;;;;;;;9.73;7.38;;;;;;;;;;6194702;28;20046;-79
2023/05/17 04:59:04;;;;;;;12.05;7.45;;;;;;;;;;6194206;28;20061;-79
2023/05/17 05:02:07;;;;;;;11.63;8.05;;;;;;;;;;6195589;28;20060;-79
2023/05/17 05:05:09;;;;;;;16.42;8.90;;;;;;;;;;6193821;28;20293;-79
2023/05/17 05:08:11;;;;;;;10.70;8.27;;;;;;;;;;6190650;28;20061;-82
2023/05/17 05:11:12;;;;;;;12.93;8.23;;;;;;;;;;6194206;28;20129;-82
2023/05/17 05:14:14;;;;;;;12.82;8.13;;;;;;;;;;6196226;28;20388;-80
2023/05/17 05:17:17;;;;;;;11.82;7.88;;;;;;;;;;6194005;28;20058;-79
2023/05/17 05:20:19;;;;;;;10.53;7.97;;;;;;;;;;6196286;28;20061;-82
2023/05/17 05:23:21;;;;;;;15.30;8.45;;;;;;;;;;6198335;28;20045;-79
2023/05/17 05:26:22;;;;;;;12.25;8.15;;;;;;;;;;6193760;28;20393;-81
2023/05/17 05:29:24;;;;;;;11.73;7.88;;;;;;;;;;6195487;28;20057;-78
2023/05/17 05:32:27;;;;;;;11.70;7.95;;;;;;;;;;6173161;28;20059;-79
2023/05/17 05:35:28;;;;;;;13.10;8.27;;;;;;;;;;6170693;28;20282;-80
2023/05/17 05:38:30;;;;;;;14.68;8.05;;;;;;;;;;6170043;28;20054;-80
2023/05/17 05:41:32;;;;;;;11.48;8.68;;;;;;;;;;6166700;28;20944;-80
2023/05/17 05:44:34;;;;;;;10.85;8.45;;;;;;;;;;6178487;28;20121;-79
2023/05/17 05:47:37;;;;;;;14.60;9.20;;;;;;;;;;6178092;28;20059;-78
2023/05/17 05:50:38;;;;;;;11.37;8.07;;;;;;;;;;6171308;28;20062;-78
2023/05/17 05:53:40;;;;;;;14.05;7.90;;;;;;;;;;6171346;28;20070;-78
2023/05/17 05:56:42;;;;;;;10.00;7.55;;;;;;;;;;6197736;28;20050;-78
2023/05/17 05:59:43;;;;;;;13.00;7.53;;;;;;;;;;6174423;28;20085;-78
2023/05/17 06:02:46;;;;;;;14.25;7.85;;;;;;;;;;6168780;28;20050;-78
2023/05/17 06:05:48;;;;;;;12.37;8.10;;;;;;;;;;6170694;28;20078;-78
2023/05/17 06:08:50;;;;;;;9.20;7.65;;;;;;;;;;6168074;28;20055;-78
2023/05/17 06:11:53;;;;;;;10.10;7.80;;;;;;;;;;6169579;28;20061;-80
2023/05/17 06:14:55;;;;;;;9.80;7.82;;;;;;;;;;6167370;28;20062;-80
2023/05/17 06:17:58;;;;;;;11.75;8.32;;;;;;;;;;6188196;28;20342;-82
2023/05/17 06:20:59;;;;;;;13.73;7.83;;;;;;;;;;6170597;28;20047;-76
2023/05/17 06:24:01;;;;;;;11.43;7.50;;;;;;;;;;6174414;28;20131;-81
2023/05/17 06:27:03;;;;;;;11.07;8.07;;;;;;;;;;6173228;28;20053;-81
2023/05/17 06:30:06;;;;;;;10.88;7.28;;;;;;;;;;6177344;28;20050;-81
2023/05/17 06:33:09;;;;;;;11.18;7.15;;;;;;;;;;6199705;28;20065;-81
2023/05/17 06:36:11;;;;;;;10.23;7.57;;;;;;;;;;6172720;28;20059;-82
2023/05/17 06:39:12;;;;;;;8.13;6.20;;;;;;;;;;6174388;28;20470;-81
2023/05/17 06:42:14;;;;;;;11.35;6.60;;;;;;;;;;6175225;28;20231;-81
2023/05/17 06:45:15;;;;;;;9.48;7.25;;;;;;;;;;6173892;28;20067;-82
2023/05/17 06:48:18;;;;;;;13.05;7.68;;;;;;;;;;6175018;28;20253;-81
2023/05/17 06:51:20;;;;;;;11.40;6.40;;;;;;;;;;6175132;28;20228;-82
2023/05/17 06:54:22;;;;;;;9.40;7.65;;;;;;;;;;6181406;28;20053;-81
2023/05/17 06:57:24;;;;;;;8.05;5.65;;;;;;;;;;6199144;28;20065;-81
2023/05/17 07:00:26;;;;;;;11.65;5.30;;;;;;;;;;6196844;28;20062;-81
2023/05/17 07:03:29;;;;;;;7.88;4.20;;;;;;;;;;6197916;28;20418;-83
2023/05/17 07:06:31;;;;;;;4.93;4.23;;;;;;;;;;6197223;28;20053;-84
2023/05/17 07:09:32;;;;;;;8.13;4.20;;;;;;;;;;6198419;28;20054;-82
2023/05/17 07:12:34;;;;;;;6.03;4.07;;;;;;;;;;6196208;28;20066;-82
2023/05/17 07:15:36;;;;;;;7.10;4.25;;;;;;;;;;6194743;28;20061;-83
2023/05/17 07:18:39;;;;;;;8.45;4.13;;;;;;;;;;6196630;28;20062;-80
2023/05/17 07:21:40;;;;;;;5.55;3.75;;;;;;;;;;6195209;28;20120;-81
2023/05/17 07:24:42;;;;;;;6.13;4.57;;;;;;;;;;6197068;28;20101;-81
2023/05/17 07:27:44;;;;;;;8.73;3.78;;;;;;;;;;6198403;28;20058;-81
2023/05/17 07:30:46;;;;;;;4.68;3.50;;;;;;;;;;6196542;28;20054;-81
2023/05/17 07:33:48;;;;;;;4.72;3.10;;;;;;;;;;6197443;28;20053;-83
2023/05/17 07:36:50;;;;;;;5.75;3.35;;;;;;;;;;6196824;28;20054;-82
2023/05/17 07:39:52;;;;;;;4.97;3.28;;;;;;;;;;6191842;28;20101;-82
2023/05/17 07:42:53;;;;;;;5.05;3.13;;;;;;;;;;6172743;28;20054;-81
2023/05/17 07:45:55;;;;;;;3.88;2.55;;;;;;;;;;6173339;28;20046;-83
2023/05/17 07:48:58;;;;;;;7.35;2.80;;;;;;;;;;6176127;28;20279;-82
2023/05/17 07:52:01;;;;;;;3.58;2.53;;;;;;;;;;6173258;28;20059;-82
2023/05/17 07:55:04;;;;;;;6.00;3.28;;;;;;;;;;6174137;28;20235;-81
2023/05/17 07:58:06;;;;;;;4.18;2.67;;;;;;;;;;6169902;28;20065;-81
2023/05/17 08:01:08;;;;;;;4.18;2.80;;;;;;;;;;6172392;28;20113;-81
2023/05/17 08:04:13;;;;;;;4.32;2.50;;;;;;;;;;6171642;28;20054;-83
2023/05/17 08:07:14;;;;;;;3.53;2.80;;;;;;;;;;6168565;28;20089;-81
2023/05/17 08:10:16;;;;;;;3.67;2.60;;;;;;;;;;6170400;28;20067;-80
2023/05/17 08:13:18;;;;;;;3.13;2.63;;;;;;;;;;6173015;28;20318;-81
2023/05/17 08:16:19;;;;;;;4.70;2.67;;;;;;;;;;6190786;28;20046;-80
2023/05/17 08:19:23;;;;;;;3.85;2.53;;;;;;;;;;6178436;28;20254;-81
2023/05/17 08:22:25;;;;;;;6.43;2.58;;;;;;;;;;6168610;28;20043;-82
2023/05/17 08:25:26;;;;;;;4.97;2.10;;;;;;;;;;6167613;28;20058;-81
2023/05/17 08:28:28;;;;;;;4.63;2.78;;;;;;;;;;6177811;28;20058;-81
2023/05/17 08:31:30;;;;;;;3.58;2.15;;;;;;;;;;6177071;28;20051;-80
2023/05/17 08:34:33;;;;;;;2.78;2.03;;;;;;;;;;6170650;28;20066;-81
2023/05/17 08:37:34;;;;;;;5.18;2.20;;;;;;;;;;6168091;28;20283;-81
2023/05/17 08:40:36;;;;;;;4.63;2.65;;;;;;;;;;6174853;28;20059;-80
2023/05/17 08:43:38;;;;;;;2.28;1.88;;;;;;;;;;6170530;28;20051;-80
2023/05/17 08:46:40;;;;;;;2.70;1.92;;;;;;;;;;6180702;28;20322;-80
2023/05/17 08:49:43;;;;;;;2.50;1.92;;;;;;;;;;6178083;28;20331;-81
2023/05/17 08:52:46;;;;;;;2.90;2.03;;;;;;;;;;6170774;28;20059;-82
2023/05/17 08:55:47;;;;;;;3.53;2.10;;;;;;;;;;6187465;28;20058;-80
2023/05/17 08:58:53;;;;;;;4.28;2.25;;;;;;;;;;6169574;28;20319;-80
2023/05/17 09:01:55;;;;;;;4.53;2.08;;;;;;;;;;6185281;28;20081;-81
2023/05/17 09:04:58;;;;;;;5.18;2.13;;;;;;;;;;6172047;28;20058;-82
2023/05/17 09:08:00;;;;;;;3.33;1.83;;;;;;;;;;6169364;28;20050;-81
2023/05/17 09:11:02;;;;;;;3.70;1.88;;;;;;;;;;6171751;28;20058;-82
2023/05/17 09:14:05;;;;;;;3.47;1.70;;;;;;;;;;6170590;28;20047;-83
2023/05/17 09:17:07;;;;;;;3.00;1.35;;;;;;;;;;6170873;28;20054;-80
2023/05/17 09:20:10;;;;;;;3.55;1.67;;;;;;;;;;6171713;28;20047;-81
2023/05/17 09:23:13;;;;;;;2.17;1.73;;;;;;;;;;6173662;28;20077;-81
2023/05/17 09:26:16;;;;;;;2.92;1.63;;;;;;;;;;6174531;28;20138;-80
2023/05/17 09:29:18;;;;;;;1.08;0.60;;;;;;;;;;6168798;28;20361;-81
2023/05/17 09:32:20;;;;;;;3.80;1.00;;;;;;;;;;6168738;28;20067;-82
2023/05/17 09:35:29;;;;;;;2.33;1.00;;;;;;;;;;6186848;28;20133;-80
2023/05/17 09:38:31;;;;;;;0.73;0.60;;;;;;;;;;6176903;28;20125;-80
2023/05/17 09:41:34;;;;;;;1.58;0.80;;;;;;;;;;6192364;28;20061;-81
2023/05/17 09:44:46;;;;;;;1.37;0.83;;;;;;;;;;6195459;28;20096;-81
2023/05/17 09:47:48;;;;;;;3.33;1.05;;;;;;;;;;6192836;28;20271;-81
2023/05/17 09:50:52;;;;;;;1.88;0.90;;;;;;;;;;6196491;28;20047;-80
2023/05/17 09:53:54;;;;;;;0.55;0.32;;;;;;;;;;6195876;28;20054;-81
2023/05/17 09:56:58;;;;;;;2.20;0.70;;;;;;;;;;6199224;28;20058;-80
2023/05/17 10:00:00;;;;;;;;;;;;;;;;;;6197719;28;20054;-80
2023/05/17 10:03:02;;;;;;;0.63;0.50;;;;;;;;;;6201240;28;19953;-81
2023/05/17 10:06:08;;;;;;;1.15;0.40;;;;;;;;;;6197787;28;20055;-82
2023/05/17 10:09:12;;;;;;;1.00;0.45;;;;;;;;;;6198814;28;20089;-80
2023/05/17 10:12:14;;;;;;;;;;;;;;;;;;6199301;28;20050;-82
2023/05/17 10:15:17;;;;;;;2.63;0.70;;;;;;;;;;6198111;28;19964;-81
2023/05/17 10:18:19;;;;;;;3.92;0.68;;;;;;;;;;6196218;28;20046;-81
2023/05/17 10:21:22;;;;;;;1.25;0.70;;;;;;;;;;6199230;28;20074;-81
2023/05/17 10:24:25;;;;;;;0.75;0.50;;;;;;;;;;6197000;28;20121;-80
2023/05/17 10:27:28;;;;;;;0.50;0.50;;;;;;;;;;6197648;28;20715;-80
2023/05/17 10:30:29;;;;;;;0.90;0.63;;;;;;;;;;6200805;28;20046;-82
2023/05/17 10:33:32;;;;;;;2.42;1.10;;;;;;;;;;6197755;28;20125;-82
2023/05/17 10:36:35;;;;;;;2.53;0.63;;;;;;;;;;6197963;28;20101;-82
2023/05/17 10:39:37;;;;;;;2.53;0.80;;;;;;;;;;6202289;28;20046;-85
2023/05/17 10:42:40;;;;;;;2.25;1.00;;;;;;;;;;6202259;28;20621;-84
2023/05/17 10:45:42;;;;;;;2.65;0.98;;;;;;;;;;6198205;28;20104;-82
2023/05/17 10:48:44;;;;;;;1.35;0.82;;;;;;;;;;6198387;28;20101;-79
2023/05/17 10:51:47;;;;;;;1.27;0.85;;;;;;;;;;6199981;28;20058;-84
2023/05/17 10:54:49;;;;;;;2.50;1.43;;;;;;;;;;6197567;28;20046;-82
2023/05/17 10:58:18;;;;;;;1.60;1.15;;;;;;;;;;6196058;28;20053;-82
2023/05/17 11:01:51;;;;;;;1.60;1.00;;;;;;;;;;6197841;28;20233;-81
2023/05/17 11:04:54;;;;;;;1.80;1.33;;;;;;;;;;6198562;28;20061;-82
2023/05/17 11:08:16;;;;;;;1.90;1.10;;;;;;;;;;6197844;28;20058;-82
2023/05/17 11:11:18;;;;;;;4.03;2.10;;;;;;;;;;6198563;28;20053;-81
2023/05/17 11:14:20;;;;;;;3.13;1.20;;;;;;;;;;6195973;28;20138;-82
2023/05/17 11:17:23;;;;;;;1.88;1.20;;;;;;;;;;6199569;28;20058;-81
2023/05/17 11:20:33;;;;;;;2.05;1.23;;;;;;;;;;6198317;28;20042;-80
2023/05/17 11:23:36;;;;;;;2.00;1.30;;;;;;;;;;6196194;28;20065;-77
2023/05/17 11:26:38;;;;;;;3.17;1.60;;;;;;;;;;6196332;28;20457;-79
2023/05/17 11:29:41;;;;;;;2.38;1.25;;;;;;;;;;6191936;28;20048;-79
2023/05/17 11:32:47;;;;;;;1.08;0.82;;;;;;;;;;6195178;28;20270;-78
2023/05/17 11:35:54;;;;;;;6.72;1.75;;;;;;;;;;6196604;28;20146;-79
2023/05/17 11:39:14;;;;;;;8.27;1.83;;;;;;;;;;6195001;28;20462;-77
2023/05/17 11:42:24;;;;;;;1.20;0.90;;;;;;;;;;6194501;28;20409;-78
2023/05/17 11:45:26;;;;;;;4.10;1.30;;;;;;;;;;6194412;28;20122;-78
2023/05/17 11:48:27;;;;;;;2.83;1.80;;;;;;;;;;6195055;28;20058;-78
2023/05/17 11:51:31;;;;;;;2.30;1.52;;;;;;;;;;6194575;28;20085;-78
2023/05/17 11:54:35;;;;;;;2.33;1.38;;;;;;;;;;6195900;28;20247;-79
2023/05/17 11:57:38;;;;;;;1.92;1.50;;;;;;;;;;6198153;28;20229;-80
2023/05/17 12:00:41;;;;;;;5.15;2.15;;;;;;;;;;6196868;28;20054;-81
2023/05/17 12:03:42;;;;;;;3.78;1.67;;;;;;;;;;6192800;28;20081;-81
2023/05/17 12:06:44;;;;;;;4.97;1.60;;;;;;;;;;6197448;28;20051;-81
2023/05/17 12:09:47;;;;;;;3.83;1.70;;;;;;;;;;6195303;28;20342;-79
2023/05/17 12:12:49;;;;;;;9.15;6.00;;;;;;;;;;6201232;28;20058;-79
2023/05/17 12:15:54;;;;;;;9.85;6.13;;;;;;;;;;6197465;28;20334;-79
2023/05/17 12:18:57;;;;;;;88.03;48.90;;;;;;;;;;6191877;28;20390;-78
2023/05/17 12:22:07;;;;;;;50.13;28.58;;;;;;;;;;6197642;28;20042;-77
2023/05/17 12:25:22;;;;;;;13.05;6.32;;;;;;;;;;6197953;28;20038;-77
2023/05/17 12:28:23;;;;;;;7.68;4.03;;;;;;;;;;6170812;28;20057;-78
2023/05/17 12:31:27;;;;;;;5.15;2.13;;;;;;;;;;6171719;28;20121;-79
2023/05/17 12:34:30;;;;;;;5.82;2.97;;;;;;;;;;6196106;28;20088;-79
2023/05/17 12:37:32;;;;;;;5.55;2.10;;;;;;;;;;6196928;28;20100;-81
2023/05/17 12:40:35;;;;;;;3.28;2.05;;;;;;;;;;6197084;28;20059;-80
2023/05/17 12:43:38;;;;;;;3.07;1.73;;;;;;;;;;6193995;28;20062;-80
2023/05/17 12:46:39;;;;;;;3.85;1.95;;;;;;;;;;6194201;28;20097;-81
2023/05/17 12:49:52;;;;;;;2.33;1.90;;;;;;;;;;6193616;28;20069;-80
2023/05/17 12:52:54;;;;;;;4.07;1.77;;;;;;;;;;6196921;28;20096;-80
2023/05/17 12:55:58;;;;;;;3.28;1.90;;;;;;;;;;6196523;28;20061;-80
2023/05/17 12:59:05;;;;;;;3.72;1.77;;;;;;;;;;6194469;28;20365;-80
2023/05/17 13:02:06;;;;;;;4.22;1.95;;;;;;;;;;6191926;28;20105;-82
2023/05/17 13:05:17;;;;;;;3.25;1.50;;;;;;;;;;6195396;28;20049;-80
2023/05/17 13:08:19;;;;;;;2.90;1.75;;;;;;;;;;6194634;28;20050;-79
2023/05/17 13:11:25;;;;;;;3.47;1.98;;;;;;;;;;6192662;28;20117;-80
2023/05/17 13:14:34;;;;;;;3.58;1.90;;;;;;;;;;6193153;28;20156;-80
2023/05/17 13:17:39;;;;;;;2.10;1.80;;;;;;;;;;6192881;28;20096;-80
2023/05/17 13:20:41;;;;;;;4.63;1.70;;;;;;;;;;6195100;28;20047;-79
2023/05/17 13:23:43;;;;;;;2.38;1.80;;;;;;;;;;6197226;28;20054;-81
2023/05/17 13:26:46;;;;;;;4.67;1.90;;;;;;;;;;6181148;28;20122;-81
2023/05/17 13:29:48;;;;;;;2.55;1.73;;;;;;;;;;6169388;28;20054;-82
2023/05/17 13:32:50;;;;;;;3.28;1.90;;;;;;;;;;6170222;28;20054;-81
2023/05/17 13:35:52;;;;;;;4.07;1.70;;;;;;;;;;6172277;28;20066;-81
2023/05/17 13:38:55;;;;;;;4.78;1.55;;;;;;;;;;6169458;28;20385;-80
2023/05/17 13:41:58;;;;;;;4.38;2.30;;;;;;;;;;6170789;28;20055;-79
2023/05/17 13:45:11;;;;;;;2.92;1.63;;;;;;;;;;6171181;28;20287;-80
2023/05/17 13:48:13;;;;;;;3.58;1.52;;;;;;;;;;6194828;28;20073;-80
2023/05/17 13:51:15;;;;;;;5.85;1.80;;;;;;;;;;6192665;28;20066;-80
2023/05/17 13:54:18;;;;;;;4.20;1.90;;;;;;;;;;6196458;28;20108;-80
2023/05/17 13:57:21;;;;;;;4.25;1.95;;;;;;;;;;6195666;28;20058;-80
2023/05/17 14:00:23;;;;;;;2.97;1.67;;;;;;;;;;6193888;28;20058;-80
2023/05/17 14:03:25;;;;;;;2.50;1.40;;;;;;;;;;6193970;28;20058;-80
2023/05/17 14:06:27;;;;;;;3.58;1.58;;;;;;;;;;6195231;28;20077;-80
2023/05/17 14:09:31;;;;;;;2.40;1.55;;;;;;;;;;6196126;28;20128;-79
2023/05/17 14:12:38;;;;;;;2.78;1.30;;;;;;;;;;6194200;28;20066;-80
2023/05/17 14:15:40;;;;;;;3.38;1.50;;;;;;;;;;6192164;28;20242;-80
2023/05/17 14:18:41;;;;;;;2.65;1.42;;;;;;;;;;6193582;28;20291;-79
2023/05/17 14:21:43;;;;;;;2.20;1.50;;;;;;;;;;6191266;28;20350;-79
2023/05/17 14:24:45;;;;;;;2.75;1.35;;;;;;;;;;6193671;28;20097;-80
2023/05/17 14:27:48;;;;;;;1.75;1.13;;;;;;;;;;6183209;28;20058;-79
2023/05/17 14:30:50;;;;;;;2.97;1.40;;;;;;;;;;6194970;28;20050;-78
2023/05/17 14:33:52;;;;;;;3.30;1.40;;;;;;;;;;6193691;28;20431;-79
2023/05/17 14:36:56;;;;;;;4.18;1.60;;;;;;;;;;6189545;28;20074;-79
2023/05/17 14:39:58;;;;;;;3.10;1.48;;;;;;;;;;6193464;28;20120;-79
2023/05/17 14:43:01;;;;;;;3.45;1.33;;;;;;;;;;6195971;28;20105;-79
2023/05/17 14:46:04;;;;;;;3.63;1.75;;;;;;;;;;6194571;28;20493;-79
2023/05/17 14:49:06;;;;;;;5.03;1.27;;;;;;;;;;6195247;28;20054;-79
2023/05/17 14:52:09;;;;;;;4.82;1.48;;;;;;;;;;6195680;28;20341;-79
2023/05/17 14:55:15;;;;;;;2.55;1.55;;;;;;;;;;6198411;28;20204;-81
2023/05/17 14:58:19;;;;;;;2.97;1.45;;;;;;;;;;6195418;28;20073;-80
2023/05/17 15:01:30;;;;;;;3.88;1.30;;;;;;;;;;6196938;28;20065;-80
2023/05/17 15:04:31;;;;;;;3.17;1.67;;;;;;;;;;6198752;28;20325;-80
2023/05/17 15:07:33;;;;;;;2.53;1.25;;;;;;;;;;6195324;28;20069;-80
2023/05/17 15:10:35;;;;;;;2.78;1.70;;;;;;;;;;6187324;28;20058;-80
2023/05/17 15:13:38;;;;;;;15.98;10.07;;;;;;;;;;6197584;28;20212;-80
2023/05/17 15:16:40;;;;;;;45.60;25.40;;;;;;;;;;6199492;28;20038;-79
2023/05/17 15:19:42;;;;;;;8.55;4.70;;;;;;;;;;6198057;28;20208;-79
2023/05/17 15:22:44;;;;;;;123.80;63.60;;;;;;;;;;6198654;28;20278;-80
2023/05/17 15:25:45;;;;;;;37.95;18.98;;;;;;;;;;6196732;28;20055;-80
2023/05/17 15:28:49;;;;;;;25.17;12.68;;;;;;;;;;6199361;28;20324;-79
2023/05/17 15:31:51;;;;;;;3.67;2.35;;;;;;;;;;6194848;28;20204;-80
2023/05/17 15:34:57;;;;;;;4.80;1.80;;;;;;;;;;6196971;28;20065;-79
2023/05/17 15:38:05;;;;;;;4.40;2.00;;;;;;;;;;6194338;28;20161;-79
2023/05/17 15:41:10;;;;;;;4.03;1.90;;;;;;;;;;6195700;28;20058;-79
2023/05/17 15:44:17;;;;;;;5.13;2.08;;;;;;;;;;6194423;28;20074;-80
2023/05/17 15:47:19;;;;;;;2.28;1.67;;;;;;;;;;6195334;28;20605;-78
2023/05/17 15:50:20;;;;;;;2.60;2.15;;;;;;;;;;6195595;28;20062;-79
2023/05/17 15:53:25;;;;;;;3.88;2.22;;;;;;;;;;6197100;28;20050;-79
2023/05/17 15:56:27;;;;;;;7.07;2.40;;;;;;;;;;6198096;28;20047;-79
2023/05/17 15:59:32;;;;;;;4.03;1.95;;;;;;;;;;6195815;28;20093;-79
2023/05/17 16:02:34;;;;;;;4.15;2.00;;;;;;;;;;6184470;28;20210;-79
2023/05/17 16:05:39;;;;;;;3.50;2.10;;;;;;;;;;6194894;28;20374;-79
2023/05/17 16:08:41;;;;;;;3.25;2.03;;;;;;;;;;6195114;28;20109;-79
2023/05/17 16:11:43;;;;;;;3.25;2.00;;;;;;;;;;6195254;28;20065;-79
2023/05/17 16:14:46;;;;;;;2.83;1.70;;;;;;;;;;6195916;28;20114;-80
2023/05/17 16:17:51;;;;;;;3.08;2.00;;;;;;;;;;6195970;28;20101;-80
2023/05/17 16:21:03;;;;;;;4.40;1.98;;;;;;;;;;6195657;28;20122;-80
2023/05/17 16:24:05;;;;;;;3.70;1.77;;;;;;;;;;6194745;28;20058;-79
2023/05/17 16:27:07;;;;;;;2.78;1.92;;;;;;;;;;6196164;28;20076;-79
2023/05/17 16:30:21;;;;;;;4.13;2.10;;;;;;;;;;6195990;28;20100;-79
2023/05/17 16:33:30;;;;;;;7.97;2.05;;;;;;;;;;6197171;28;20054;-79
2023/05/17 16:36:34;;;;;;;5.38;2.17;;;;;;;;;;6169219;28;20050;-79
2023/05/17 16:39:39;;;;;;;;;;;;;;;;;;6172259;28;20055;-79
2023/05/17 16:42:41;;;;;;;4.10;1.70;;;;;;;;;;6184260;28;20114;-79
2023/05/17 16:45:50;;;;;;;4.38;1.80;;;;;;;;;;6167758;28;20055;-79
2023/05/17 16:48:56;;;;;;;3.95;1.80;;;;;;;;;;6169425;28;20058;-79
2023/05/17 16:52:01;;;;;;;3.33;1.70;;;;;;;;;;6171410;28;20342;-79
2023/05/17 16:55:03;;;;;;;2.50;1.58;;;;;;;;;;6161620;28;20058;-79
2023/05/17 16:58:05;;;;;;;4.30;1.73;;;;;;;;;;6172288;28;20066;-79
2023/05/17 17:01:11;;;;;;;4.50;1.90;;;;;;;;;;6168606;28;20089;-80
2023/05/17 17:04:13;;;;;;;3.75;1.85;;;;;;;;;;6174324;28;20059;-80
2023/05/17 17:07:15;;;;;;;3.20;2.00;;;;;;;;;;6180537;28;20054;-79
2023/05/17 17:10:18;;;;;;;3.92;1.65;;;;;;;;;;6166759;28;20058;-80
2023/05/17 17:13:20;;;;;;;;;;;;;;;;;;6170264;28;20055;-80
2023/05/17 17:16:26;;;;;;;3.75;1.77;;;;;;;;;;6171399;28;19969;-79
2023/05/17 17:19:31;;;;;;;3.70;1.77;;;;;;;;;;6170879;28;20059;-79
2023/05/17 17:22:33;;;;;;;3.40;1.65;;;;;;;;;;6184855;28;20051;-80
2023/05/17 17:25:35;;;;;;;4.03;1.85;;;;;;;;;;6170445;28;20119;-79
2023/05/17 17:28:37;;;;;;;3.72;1.80;;;;;;;;;;6179310;28;20054;-79
2023/05/17 17:31:40;;;;;;;5.57;1.88;;;;;;;;;;6176017;28;20066;-79
2023/05/17 17:34:41;;;;;;;3.15;1.85;;;;;;;;;;6167829;28;20067;-78
2023/05/17 17:37:47;;;;;;;4.20;1.90;;;;;;;;;;6186663;28;20094;-77
2023/05/17 17:40:48;;;;;;;3.80;2.65;;;;;;;;;;6173410;28;20407;-77
2023/05/17 17:43:54;;;;;;;3.63;1.90;;;;;;;;;;6171070;28;20047;-77
2023/05/17 17:46:57;;;;;;;3.20;2.30;;;;;;;;;;6172350;28;20219;-76
2023/05/17 17:50:00;;;;;;;2.55;2.15;;;;;;;;;;6168179;28;20109;-77
2023/05/17 17:53:05;;;;;;;4.38;2.20;;;;;;;;;;6183862;28;20108;-77
2023/05/17 17:56:12;;;;;;;3.28;2.22;;;;;;;;;;6179243;28;20158;-77
2023/05/17 17:59:14;;;;;;;3.70;2.53;;;;;;;;;;6184441;28;20058;-79
2023/05/17 18:02:17;;;;;;;4.45;2.25;;;;;;;;;;6194698;28;20096;-82
2023/05/17 18:05:20;;;;;;;5.65;2.42;;;;;;;;;;6194413;28;20350;-79
2023/05/17 18:08:25;;;;;;;5.40;3.28;;;;;;;;;;6193011;28;20055;-81
2023/05/17 18:11:29;;;;;;;6.43;2.22;;;;;;;;;;6191341;28;20066;-79
2023/05/17 18:14:34;;;;;;;3.83;2.97;;;;;;;;;;6196823;28;20122;-79
2023/05/17 18:17:38;;;;;;;7.15;3.03;;;;;;;;;;6198273;28;20058;-88